Time;durP1;ratioP1;P1;durP2;ratioP2;P2;SDS_P1;SDS_P2;PMS_P1;PMS_P2;Temp;Humidity;BMP_temperature;BMP_pressure;BME280_temperature;BME280_humidity;BME280_pressure;Samples;Min_cycle;Max_cycle;Signal;HPM_P1;HPM_P2
2023/03/24 00:01:53;;;;;;;77.30;32.17;;;;;;;7.42;84.89;94932.69;5055661;28;20192;-76
2023/03/24 00:04:20;;;;;;;69.23;35.23;;;;;;;7.44;84.67;94935.06;5062104;28;20567;-77
2023/03/24 00:06:47;;;;;;;64.03;33.93;;;;;;;7.40;84.86;94920.75;5059544;28;20191;-77
2023/03/24 00:09:14;;;;;;;68.73;34.17;;;;;;;7.41;85.49;94922.38;5067211;28;20178;-76
2023/03/24 00:11:39;;;;;;;61.33;32.13;;;;;;;7.46;85.28;94931.28;5067641;28;20261;-76
2023/03/24 00:14:05;;;;;;;71.27;32.83;;;;;;;7.41;85.02;94931.06;5056565;28;20601;-76
2023/03/24 00:16:33;;;;;;;75.67;34.27;;;;;;;7.34;85.00;94924.16;5060940;28;20237;-76
2023/03/24 00:18:59;;;;;;;71.37;33.13;;;;;;;7.44;84.98;94945.56;5050513;28;20186;-76
2023/03/24 00:21:25;;;;;;;63.93;32.83;;;;;;;7.33;85.06;94919.91;5050710;28;20610;-76
2023/03/24 00:23:57;;;;;;;62.57;31.10;;;;;;;7.35;85.01;94937.03;5062261;28;20253;-77
2023/03/24 00:26:23;;;;;;;66.50;31.93;;;;;;;7.30;85.44;94938.59;5070477;28;20682;-76
2023/03/24 00:28:50;;;;;;;59.90;30.43;;;;;;;7.26;85.78;94929.50;5062230;28;20170;-77
2023/03/24 00:31:16;;;;;;;52.70;26.83;;;;;;;7.22;86.22;94941.34;5061961;28;20179;-77
2023/03/24 00:33:46;;;;;;;58.37;28.63;;;;;;;7.03;86.40;94927.88;5058304;28;20638;-76
2023/03/24 00:36:12;;;;;;;58.33;29.23;;;;;;;7.09;86.70;94939.44;5054082;28;20170;-76
2023/03/24 00:38:39;;;;;;;64.83;29.33;;;;;;;7.11;86.20;94934.81;5070974;28;20227;-76
2023/03/24 00:41:09;;;;;;;64.43;28.40;;;;;;;7.12;85.95;94931.19;5062487;28;20175;-76
2023/03/24 00:43:35;;;;;;;53.53;23.80;;;;;;;7.10;86.01;94927.94;5062641;28;20225;-76
2023/03/24 00:46:07;;;;;;;53.83;23.97;;;;;;;6.97;85.98;94905.09;5061924;28;20255;-75
2023/03/24 00:48:33;;;;;;;54.77;24.83;;;;;;;7.05;86.14;94925.91;5056371;28;20248;-76
2023/03/24 00:51:04;;;;;;;54.97;25.30;;;;;;;7.03;85.91;94927.88;5054067;28;20175;-76
2023/03/24 00:53:30;;;;;;;44.70;22.57;;;;;;;7.00;85.63;94932.69;5067407;28;20193;-76
2023/03/24 00:55:57;;;;;;;49.80;22.87;;;;;;;6.96;85.56;94928.81;5074125;28;20182;-75
2023/03/24 00:58:24;;;;;;;40.63;17.90;;;;;;;6.81;85.03;94911.38;5053992;28;20223;-76
2023/03/24 01:00:52;;;;;;;36.37;17.30;;;;;;;6.79;85.76;94907.31;5053849;28;20186;-75
2023/03/24 01:03:20;;;;;;;30.00;16.57;;;;;;;6.86;85.69;94926.50;5053732;28;20198;-75
2023/03/24 01:05:47;;;;;;;32.27;16.53;;;;;;;6.65;85.36;94893.31;5053682;28;20198;-75
2023/03/24 01:08:19;;;;;;;36.97;18.73;;;;;;;6.82;85.73;94931.31;5053803;28;20179;-76
2023/03/24 01:10:49;;;;;;;31.33;17.27;;;;;;;6.77;85.78;94925.00;5058497;28;20202;-75
2023/03/24 01:13:16;;;;;;;37.80;19.00;;;;;;;6.66;85.86;94901.97;5073444;28;20182;-75
2023/03/24 01:15:44;;;;;;;46.33;21.10;;;;;;;6.79;86.17;94925.63;5073350;28;20653;-75
2023/03/24 01:18:11;;;;;;;30.40;16.67;;;;;;;6.76;86.14;94926.81;5057580;28;20206;-75
2023/03/24 01:20:39;;;;;;;35.00;18.20;;;;;;;6.77;86.09;94917.97;5061937;28;20191;-76
2023/03/24 01:23:06;;;;;;;36.53;18.73;;;;;;;6.78;85.98;94916.16;5062382;28;20189;-76
2023/03/24 01:25:35;;;;;;;44.70;18.77;;;;;;;6.78;85.66;94914.38;5062022;28;20241;-76
2023/03/24 01:28:01;;;;;;;56.17;19.47;;;;;;;6.69;85.78;94897.16;5058948;28;20178;-76
2023/03/24 01:30:28;;;;;;;41.13;18.83;;;;;;;6.72;85.65;94912.50;5073491;28;20185;-76
2023/03/24 01:32:54;;;;;;;39.63;19.27;;;;;;;6.59;86.30;94901.06;5064816;28;20178;-76
2023/03/24 01:35:21;;;;;;;37.60;21.80;;;;;;;6.65;86.19;94910.81;5065017;28;20190;-76
2023/03/24 01:37:47;;;;;;;41.83;21.67;;;;;;;6.60;86.58;94897.47;5063027;28;20179;-76
2023/03/24 01:40:18;;;;;;;44.10;22.20;;;;;;;6.63;86.46;94899.72;5053228;28;20237;-76
2023/03/24 01:42:44;;;;;;;39.00;20.60;;;;;;;6.60;86.58;94902.69;5053412;28;20695;-76
2023/03/24 01:45:37;;;;;;;37.87;20.93;;;;;;;6.58;86.05;94909.91;5065974;28;20174;-76
2023/03/24 01:48:23;;;;;;;40.47;20.00;;;;;;;6.43;86.17;94894.25;5064954;28;20186;-76
2023/03/24 01:50:57;;;;;;;39.73;19.00;;;;;;;6.48;85.92;94912.03;5063265;28;20582;-76
2023/03/24 01:53:24;;;;;;;35.90;18.50;;;;;;;6.29;86.92;94889.88;5052973;28;20175;-76
2023/03/24 01:55:50;;;;;;;35.03;20.00;;;;;;;6.32;87.13;94894.72;5070155;28;20178;-76
2023/03/24 01:58:16;;;;;;;31.53;18.20;;;;;;;6.29;86.77;94890.69;5072738;28;20302;-76
2023/03/24 02:00:42;;;;;;;41.23;19.90;;;;;;;6.37;86.83;94914.13;5062636;28;20277;-76
2023/03/24 02:03:16;;;;;;;34.17;18.40;;;;;;;6.42;86.98;94908.31;5072559;28;20256;-76
2023/03/24 02:05:45;;;;;;;37.10;18.33;;;;;;;6.44;86.83;94915.00;5066281;28;20206;-76
2023/03/24 02:08:27;;;;;;;32.93;19.10;;;;;;;6.47;86.84;94918.25;5070076;28;20190;-76
2023/03/24 02:10:54;;;;;;;37.17;19.77;;;;;;;6.37;86.46;94901.06;5056847;28;20546;-76
2023/03/24 02:13:21;;;;;;;41.10;22.47;;;;;;;6.39;86.39;94925.22;5063349;28;20261;-76
2023/03/24 02:16:19;;;;;;;42.20;22.47;;;;;;;6.39;87.13;94922.59;5066623;28;20270;-75
2023/03/24 02:19:22;;;;;;;39.07;21.60;;;;;;;6.24;87.38;94905.28;5066316;28;20257;-76
2023/03/24 02:21:57;;;;;;;35.47;19.77;;;;;;;6.32;86.98;94921.69;5038416;28;20190;-76
2023/03/24 02:25:07;;;;;;;36.97;19.20;;;;;;;6.26;87.27;94921.63;5054329;28;20185;-76
2023/03/24 02:27:50;;;;;;;35.03;18.47;;;;;;;6.21;87.05;94916.13;5050083;28;20223;-76
2023/03/24 02:30:43;;;;;;;30.27;15.73;;;;;;;6.22;87.42;94917.75;5052512;28;20182;-76
2023/03/24 02:33:52;;;;;;;29.42;16.30;;;;;;;6.12;87.89;94918.03;5059752;28;20411;-75
2023/03/24 02:36:57;;;;;;;24.97;14.20;;;;;;;6.21;87.62;94922.16;5051862;28;20596;-75
2023/03/24 02:39:31;;;;;;;27.13;14.30;;;;;;;6.19;87.19;94912.88;5059829;28;20667;-76
2023/03/24 02:42:06;;;;;;;27.80;15.67;;;;;;;6.12;87.83;94904.16;5052073;28;20170;-76
2023/03/24 02:44:56;;;;;;;29.13;15.60;;;;;;;6.16;87.65;94910.63;5060246;28;20567;-75
2023/03/24 02:48:09;;;;;;;32.03;16.47;;;;;;;6.19;87.63;94897.19;5051853;28;20203;-76
2023/03/24 02:50:57;;;;;;;36.40;20.50;;;;;;;6.15;88.04;94891.53;5043668;28;20453;-75
2023/03/24 02:53:49;;;;;;;35.07;18.83;;;;;;;6.06;87.31;94872.53;5065286;28;20187;-76
2023/03/24 02:56:17;;;;;;;38.30;18.77;;;;;;;6.21;86.93;94890.00;5056934;28;20258;-75
2023/03/24 02:58:51;;;;;;;31.93;16.37;;;;;;;5.98;87.46;94843.88;5063120;28;20227;-76
2023/03/24 03:01:30;;;;;;;33.17;17.70;;;;;;;6.26;87.35;94887.63;5051600;28;20656;-76
2023/03/24 03:04:07;;;;;;;30.70;16.67;;;;;;;6.29;87.09;94884.66;5060547;28;20167;-76
2023/03/24 03:06:38;;;;;;;33.83;16.60;;;;;;;6.31;87.02;94886.06;5064075;28;20202;-76
2023/03/24 03:09:08;;;;;;;30.58;17.88;;;;;;;6.24;87.35;94859.06;5051990;28;20411;-76
2023/03/24 03:11:34;;;;;;;30.43;17.77;;;;;;;6.37;86.72;94881.94;5057145;28;20175;-76
2023/03/24 03:14:07;;;;;;;31.00;15.47;;;;;;;6.39;87.07;94887.81;5051621;28;20244;-76
2023/03/24 03:16:58;;;;;;;30.67;16.00;;;;;;;6.40;87.08;94876.31;5061691;28;20167;-76
2023/03/24 03:19:54;;;;;;;27.47;15.67;;;;;;;6.42;87.15;94880.38;5069531;28;20197;-76
2023/03/24 03:22:35;;;;;;;37.50;16.43;;;;;;;6.42;87.06;94883.00;5067785;28;20269;-76
2023/03/24 03:25:02;;;;;;;37.87;18.33;;;;;;;6.37;87.32;94890.59;5062537;28;20178;-76
2023/03/24 03:27:37;;;;;;;34.20;18.57;;;;;;;6.39;87.14;94890.41;5062381;28;20194;-76
2023/03/24 03:30:10;;;;;;;28.70;16.57;;;;;;;6.34;87.71;94872.66;5053359;28;20219;-76
2023/03/24 03:32:41;;;;;;;19.13;12.07;;;;;;;6.44;87.28;94883.63;5051829;28;20177;-76
2023/03/24 03:35:13;;;;;;;27.57;15.53;;;;;;;6.46;87.25;94878.22;5056969;28;20174;-76
2023/03/24 03:37:39;;;;;;;28.90;16.00;;;;;;;6.47;87.42;94873.81;5062252;28;20166;-76
2023/03/24 03:40:11;;;;;;;25.43;14.90;;;;;;;6.45;87.06;94871.38;5051477;28;20250;-76
2023/03/24 03:42:37;;;;;;;26.03;14.37;;;;;;;6.47;87.39;94874.63;5060380;28;20236;-76
2023/03/24 03:45:03;;;;;;;23.70;13.73;;;;;;;6.18;87.28;94833.66;5067499;28;20564;-76
2023/03/24 03:47:30;;;;;;;20.67;11.83;;;;;;;6.46;86.57;94883.44;5059444;28;20644;-76
2023/03/24 03:49:55;;;;;;;26.20;12.27;;;;;;;6.44;87.00;94882.81;5060178;28;20170;-76
2023/03/24 03:52:21;;;;;;;23.43;12.73;;;;;;;6.29;86.69;94867.19;5058535;28;20179;-76
2023/03/24 03:54:47;;;;;;;21.23;12.33;;;;;;;6.40;86.87;94892.81;5062242;28;20186;-76
2023/03/24 03:57:14;;;;;;;23.63;13.17;;;;;;;6.39;87.17;94888.63;5068377;28;20198;-76
2023/03/24 03:59:40;;;;;;;21.33;13.13;;;;;;;6.41;86.96;94891.00;5060042;28;20767;-76
2023/03/24 04:02:27;;;;;;;38.83;18.37;;;;;;;6.44;86.79;94888.84;5051401;28;20216;-76
2023/03/24 04:04:52;;;;;;;29.20;13.37;;;;;;;6.38;86.95;94892.22;5062209;28;20224;-76
2023/03/24 04:07:29;;;;;;;36.73;21.33;;;;;;;6.38;86.67;94889.59;5055861;28;20947;-76
2023/03/24 04:10:21;;;;;;;47.03;25.03;;;;;;;6.17;87.03;94878.28;5061331;28;20269;-76
2023/03/24 04:13:04;;;;;;;42.60;22.40;;;;;;;6.13;87.70;94897.94;5061333;28;20483;-76
2023/03/24 04:15:35;;;;;;;48.05;24.38;;;;;;;6.15;88.18;94895.94;5050275;28;20411;-76
2023/03/24 04:18:13;;;;;;;38.55;21.92;;;;;;;6.13;87.94;94898.75;5049423;28;20470;-76
2023/03/24 04:20:45;;;;;;;35.23;18.40;;;;;;;6.18;87.30;94901.63;5059836;28;20178;-76
2023/03/24 04:23:30;;;;;;;33.47;16.87;;;;;;;6.19;87.28;94903.25;5061158;28;20187;-76
2023/03/24 04:26:26;;;;;;;31.63;16.13;;;;;;;6.18;87.41;94896.38;5072926;28;20198;-76
2023/03/24 04:29:19;;;;;;;33.53;16.43;;;;;;;6.17;86.62;94892.16;5068371;28;20266;-76
2023/03/24 04:32:04;;;;;;;29.93;16.07;;;;;;;6.07;86.92;94875.94;5064092;28;20175;-77
2023/03/24 04:34:40;;;;;;;30.63;17.83;;;;;;;6.25;86.66;94899.06;5073241;28;20181;-77
2023/03/24 04:37:16;;;;;;;29.57;17.07;;;;;;;6.21;86.50;94901.25;5070927;28;20228;-76
2023/03/24 04:39:45;;;;;;;31.93;17.50;;;;;;;6.18;86.74;94893.78;5063781;28;20175;-77
2023/03/24 04:42:21;;;;;;;38.67;18.40;;;;;;;6.30;86.97;94894.94;5054913;28;20194;-76
2023/03/24 04:44:50;;;;;;;36.57;18.73;;;;;;;6.36;86.61;94899.44;5059864;28;20177;-76
2023/03/24 04:47:19;;;;;;;40.33;19.33;;;;;;;6.67;86.21;94919.25;5062940;28;20234;-77
2023/03/24 04:49:45;;;;;;;35.00;20.43;;;;;;;6.98;85.33;94919.81;5065360;28;20212;-76
2023/03/24 04:52:10;;;;;;;48.50;28.40;;;;;;;7.30;84.66;94928.13;5061933;28;20554;-76
2023/03/24 04:54:36;;;;;;;55.90;28.20;;;;;;;7.52;83.00;94912.19;5069755;28;20670;-77
2023/03/24 04:57:01;;;;;;;49.93;28.70;;;;;;;7.92;82.07;94936.84;5074712;28;20562;-78
2023/03/24 04:59:33;;;;;;;69.97;35.33;;;;;;;8.10;80.58;94928.50;5054506;28;20309;-76
2023/03/24 05:01:59;;;;;;;70.43;35.63;;;;;;;8.38;80.15;94944.19;5059396;28;20163;-77
2023/03/24 05:04:27;;;;;;;65.87;37.07;;;;;;;8.80;79.06;94937.09;5064846;28;20236;-77
2023/03/24 05:06:52;;;;;;;64.03;35.37;;;;;;;9.20;77.32;94932.72;5072137;28;20203;-76
2023/03/24 05:09:20;;;;;;;61.17;35.63;;;;;;;9.93;75.45;94946.69;5065969;28;20663;-76
2023/03/24 05:11:46;;;;;;;59.53;31.03;;;;;;;10.55;72.67;94933.00;5065644;28;20613;-81
2023/03/24 05:14:12;;;;;;;56.20;31.03;;;;;;;11.44;69.38;94938.16;5065820;28;20643;-78
2023/03/24 05:16:37;;;;;;;55.00;30.57;;;;;;;12.57;66.21;94961.72;5058535;28;20174;-77
2023/03/24 05:19:03;;;;;;;56.67;29.07;;;;;;;13.56;63.05;94959.47;5064398;28;20681;-77
2023/03/24 05:21:29;;;;;;;51.57;27.20;;;;;;;14.63;59.74;94962.75;5069172;28;20261;-78
2023/03/24 05:23:54;;;;;;;60.47;29.87;;;;;;;15.47;56.53;94960.41;5073708;28;20943;-78
2023/03/24 05:26:19;;;;;;;51.40;32.42;;;;;;;16.18;54.41;94950.97;5058441;28;20256;-78
2023/03/24 05:28:45;;;;;;;55.85;31.08;;;;;;;16.92;52.84;94941.66;5065664;28;20189;-79
2023/03/24 05:31:10;;;;;;;77.35;41.17;;;;;;;17.25;51.47;94950.53;5073742;28;20274;-78
2023/03/24 05:33:36;;;;;;;61.67;33.72;;;;;;;17.81;50.15;94964.44;5064923;28;20248;-77
2023/03/24 05:36:01;;;;;;;61.72;37.28;;;;;;;18.47;49.02;94960.41;5065057;28;20189;-79
2023/03/24 05:38:28;;;;;;;62.83;36.30;;;;;;;19.03;46.86;94937.50;5065175;28;20614;-78
2023/03/24 05:41:00;;;;;;;64.95;39.72;;;;;;;19.84;45.48;94966.31;5062177;28;20187;-78
2023/03/24 05:43:26;;;;;;;74.38;38.65;;;;;;;20.45;44.23;94966.34;5057938;28;20182;-79
2023/03/24 05:45:52;;;;;;;59.85;34.50;;;;;;;20.84;43.11;94966.56;5067982;28;20190;-79
2023/03/24 05:48:17;;;;;;;56.92;34.08;;;;;;;21.49;42.67;94970.06;5069335;28;20189;-80
2023/03/24 05:50:43;;;;;;;52.08;33.20;;;;;;;22.06;41.72;94959.53;5064140;28;20186;-79
2023/03/24 05:53:08;;;;;;;58.25;33.85;;;;;;;22.23;40.29;94959.13;5064163;28;20554;-79
2023/03/24 05:55:34;;;;;;;38.75;24.40;;;;;;;22.57;40.25;94953.75;5070544;28;20574;-78
2023/03/24 05:58:00;;;;;;;45.20;25.75;;;;;;;23.33;39.27;94967.16;5067692;28;20189;-78
2023/03/24 06:00:28;;;;;;;34.92;19.63;;;;;;;24.07;36.79;94975.59;5066140;28;20717;-78
2023/03/24 06:02:53;;;;;;;34.47;21.20;;;;;;;24.34;36.40;94966.84;5053437;28;20215;-78
2023/03/24 06:05:19;;;;;;;36.08;22.52;;;;;;;24.94;35.38;94965.00;5061529;28;20235;-80
2023/03/24 06:07:44;;;;;;;34.22;21.15;;;;;;;25.33;33.69;94942.97;5053807;28;20199;-80
2023/03/24 06:10:13;;;;;;;32.35;21.35;;;;;;;25.63;32.85;94954.22;5069366;28;20200;-81
2023/03/24 06:12:40;;;;;;;31.65;20.60;;;;;;;26.22;31.43;94959.31;5064608;28;20223;-82
2023/03/24 06:15:07;;;;;;;32.13;21.45;;;;;;;26.43;29.99;94958.88;5064486;28;20175;-80
2023/03/24 06:17:32;;;;;;;32.00;19.98;;;;;;;26.53;29.48;94967.53;5062396;28;20163;-80
2023/03/24 06:20:04;;;;;;;31.80;18.23;;;;;;;26.51;29.57;94966.22;5062593;28;20315;-80
2023/03/24 06:22:32;;;;;;;31.52;18.88;;;;;;;26.58;29.54;94967.38;5065539;28;20183;-81
2023/03/24 06:24:57;;;;;;;34.95;18.40;;;;;;;26.06;29.10;94965.38;5069923;28;20178;-81
2023/03/24 06:27:29;;;;;;;30.48;18.60;;;;;;;26.28;29.87;94970.84;5056780;28;20631;-81
2023/03/24 06:29:56;;;;;;;24.33;16.35;;;;;;;26.68;28.89;94947.41;5061915;28;20299;-82
2023/03/24 06:32:22;;;;;;;38.13;16.77;;;;;;;27.19;27.63;94965.81;5061889;28;20658;-82
2023/03/24 06:34:47;;;;;;;25.85;16.20;;;;;;;27.35;27.88;94958.06;5064924;28;20178;-82
2023/03/24 06:37:13;;;;;;;21.15;14.73;;;;;;;27.64;27.08;94954.81;5066262;28;20171;-82
2023/03/24 06:39:39;;;;;;;18.67;14.10;;;;;;;27.77;26.95;94973.63;5065391;28;20179;-82
2023/03/24 06:42:05;;;;;;;24.25;14.45;;;;;;;27.60;27.26;94965.47;5066069;28;20201;-82
2023/03/24 06:44:30;;;;;;;22.02;14.55;;;;;;;27.43;27.49;94968.91;5068668;28;20933;-82
2023/03/24 06:46:55;;;;;;;26.30;15.23;;;;;;;27.37;27.51;94945.81;5065766;28;20205;-82
2023/03/24 06:49:21;;;;;;;22.63;14.88;;;;;;;27.55;27.33;94971.03;5070974;28;20250;-82
2023/03/24 06:51:47;;;;;;;22.50;14.43;;;;;;;27.47;27.59;94973.69;5066961;28;20679;-83
2023/03/24 06:54:12;;;;;;;25.50;15.00;;;;;;;26.33;28.28;94951.00;5072805;28;20678;-81
2023/03/24 06:56:37;;;;;;;24.10;15.07;;;;;;;25.26;29.69;94939.06;5063435;28;20174;-82
2023/03/24 06:59:03;;;;;;;22.48;14.57;;;;;;;24.79;30.93;94962.56;5061537;28;20302;-81
2023/03/24 07:01:29;;;;;;;24.83;15.57;;;;;;;24.17;32.22;94953.91;5052787;28;20163;-82
2023/03/24 07:03:55;;;;;;;23.30;14.93;;;;;;;23.77;32.03;94949.94;5052618;28;20660;-81
2023/03/24 07:06:21;;;;;;;19.30;12.85;;;;;;;23.54;32.87;94940.03;5052474;28;20693;-81
2023/03/24 07:08:47;;;;;;;23.23;14.52;;;;;;;23.72;33.51;94976.91;5052816;28;20187;-82
2023/03/24 07:11:13;;;;;;;21.90;13.25;;;;;;;23.54;33.76;94973.09;5052377;28;20206;-82
2023/03/24 07:13:39;;;;;;;23.73;14.60;;;;;;;23.26;33.42;94963.25;5053005;28;20238;-82
2023/03/24 07:16:04;;;;;;;24.08;16.58;;;;;;;22.87;34.22;94976.81;5056933;28;20171;-81
2023/03/24 07:18:30;;;;;;;19.23;13.25;;;;;;;22.21;34.90;94945.22;5063622;28;20232;-81
2023/03/24 07:20:55;;;;;;;22.15;13.00;;;;;;;22.17;35.85;94979.84;5064552;28;20558;-81
2023/03/24 07:23:21;;;;;;;16.75;10.82;;;;;;;22.26;36.38;94958.59;5067973;28;20642;-81
2023/03/24 07:25:46;;;;;;;18.65;12.45;;;;;;;22.23;36.19;94948.41;5063328;28;20207;-81
2023/03/24 07:28:11;;;;;;;19.40;13.30;;;;;;;21.78;35.88;94938.81;5071164;28;20624;-82
2023/03/24 07:30:37;;;;;;;23.45;12.43;;;;;;;21.24;36.81;94936.19;5067700;28;20530;-84
2023/03/24 07:33:05;;;;;;;24.17;13.35;;;;;;;21.05;37.64;94941.31;5067651;28;20252;-83
2023/03/24 07:35:30;;;;;;;22.08;12.85;;;;;;;20.50;39.47;94940.41;5070438;28;20209;-81
2023/03/24 07:37:59;;;;;;;24.80;13.68;;;;;;;20.49;40.37;94954.06;5064831;28;20206;-85
2023/03/24 07:40:25;;;;;;;27.75;12.55;;;;;;;20.75;39.23;94965.50;5071344;28;20198;-81
2023/03/24 07:42:50;;;;;;;23.95;13.98;;;;;;;20.62;39.63;94956.97;5066932;28;20212;-83
2023/03/24 07:45:16;;;;;;;24.02;14.38;;;;;;;20.77;41.46;94968.69;5063413;28;20213;-82
2023/03/24 07:47:45;;;;;;;27.73;14.48;;;;;;;20.90;40.61;94968.94;5068654;28;20236;-82
2023/03/24 07:50:12;;;;;;;21.83;13.02;;;;;;;20.76;40.74;94970.56;5063847;28;20182;-81
2023/03/24 07:52:39;;;;;;;27.75;14.52;;;;;;;20.10;41.25;94967.16;5066498;28;20182;-82
2023/03/24 07:55:07;;;;;;;22.95;14.23;;;;;;;19.78;41.05;94919.31;5063296;28;20212;-81
2023/03/24 07:57:36;;;;;;;20.00;12.82;;;;;;;19.85;42.77;94943.88;5069984;28;20543;-80
2023/03/24 08:00:16;;;;;;;22.65;13.10;;;;;;;20.47;42.35;94954.31;5062210;28;20249;-80
2023/03/24 08:02:46;;;;;;;21.15;12.52;;;;;;;20.92;40.56;94952.63;5056369;28;20162;-81
2023/03/24 08:05:13;;;;;;;22.05;13.85;;;;;;;21.18;39.28;94951.47;5062974;28;20635;-81
2023/03/24 08:07:41;;;;;;;21.95;12.73;;;;;;;21.30;38.00;94948.47;5061966;28;20205;-82
2023/03/24 08:10:08;;;;;;;19.75;11.30;;;;;;;20.96;38.65;94929.56;5060493;28;20179;-82
2023/03/24 08:12:34;;;;;;;20.10;12.85;;;;;;;20.93;37.50;94938.16;5053603;28;20174;-81
2023/03/24 08:14:59;;;;;;;21.02;12.30;;;;;;;21.03;39.09;94941.59;5068994;28;20178;-81
2023/03/24 08:17:25;;;;;;;22.02;13.20;;;;;;;20.95;39.46;94939.47;5054016;28;20190;-81
2023/03/24 08:19:50;;;;;;;24.58;14.18;;;;;;;21.17;39.23;94943.69;5059117;28;20186;-80
2023/03/24 08:22:16;;;;;;;21.80;12.70;;;;;;;20.97;38.63;94941.88;5061438;28;20762;-81
2023/03/24 08:24:42;;;;;;;17.17;11.30;;;;;;;21.07;38.74;94912.41;5066293;28;20174;-81
2023/03/24 08:27:08;;;;;;;18.60;11.32;;;;;;;21.48;38.24;94934.44;5061562;28;20198;-82
2023/03/24 08:29:33;;;;;;;22.05;10.30;;;;;;;21.54;37.59;94936.00;5055894;28;20170;-81
2023/03/24 08:31:59;;;;;;;15.82;9.98;;;;;;;20.84;37.19;94931.78;5062680;28;20623;-81
2023/03/24 08:34:27;;;;;;;16.23;10.60;;;;;;;20.00;39.32;94908.34;5062679;28;20183;-81
2023/03/24 08:36:52;;;;;;;19.08;10.35;;;;;;;19.84;40.78;94916.38;5062609;28;20578;-81
2023/03/24 08:39:19;;;;;;;16.90;10.23;;;;;;;20.00;39.88;94927.03;5066696;28;20654;-81
2023/03/24 08:41:45;;;;;;;14.70;10.00;;;;;;;20.25;38.86;94892.28;5067838;28;20170;-83
2023/03/24 08:44:10;;;;;;;22.25;11.45;;;;;;;20.27;39.36;94895.50;5071456;28;20205;-84
2023/03/24 08:46:36;;;;;;;19.63;11.77;;;;;;;20.45;39.06;94883.44;5071736;28;20214;-83
2023/03/24 08:49:02;;;;;;;20.05;11.07;;;;;;;20.69;38.41;94908.50;5071197;28;20627;-83
2023/03/24 08:51:27;;;;;;;20.25;12.05;;;;;;;20.93;38.53;94908.72;5071302;28;20170;-83
2023/03/24 08:53:54;;;;;;;21.35;11.38;;;;;;;21.13;38.18;94902.47;5071362;28;20636;-82
2023/03/24 08:56:21;;;;;;;18.95;10.60;;;;;;;21.27;37.15;94896.28;5070205;28;20571;-82
2023/03/24 08:58:52;;;;;;;20.50;12.15;;;;;;;20.90;39.90;94890.53;5061997;28;20226;-82
2023/03/24 09:01:19;;;;;;;22.10;11.95;;;;;;;20.91;38.51;94871.53;5060568;28;20187;-82
2023/03/24 09:03:45;;;;;;;22.33;11.80;;;;;;;21.02;37.48;94891.78;5049263;28;20702;-82
2023/03/24 09:06:11;;;;;;;17.70;11.45;;;;;;;20.90;38.26;94882.50;5049257;28;20207;-82
2023/03/24 09:08:37;;;;;;;19.27;10.90;;;;;;;20.85;37.62;94887.84;5049171;28;20175;-82
2023/03/24 09:11:04;;;;;;;21.30;11.55;;;;;;;20.76;37.62;94868.13;5059788;28;20181;-82
2023/03/24 09:13:29;;;;;;;23.23;11.52;;;;;;;20.78;38.22;94823.13;5070821;28;20200;-82
2023/03/24 09:16:01;;;;;;;26.48;12.35;;;;;;;21.44;38.11;94875.28;5070935;28;20808;-82
2023/03/24 09:18:27;;;;;;;20.65;12.55;;;;;;;21.28;35.93;94873.75;5070974;28;20183;-82
2023/03/24 09:20:52;;;;;;;21.60;12.18;;;;;;;20.00;37.91;94839.66;5071224;28;20181;-82
2023/03/24 09:23:19;;;;;;;30.05;11.63;;;;;;;20.20;40.57;94863.69;5061901;28;20190;-81
2023/03/24 09:25:48;;;;;;;27.88;12.50;;;;;;;20.21;39.52;94843.09;5066951;28;20247;-80
2023/03/24 09:28:14;;;;;;;18.60;12.02;;;;;;;20.59;40.67;94865.75;5058206;28;20626;-80
2023/03/24 09:30:40;;;;;;;22.50;12.80;;;;;;;20.61;38.76;94859.06;5066659;28;20174;-80
2023/03/24 09:33:06;;;;;;;22.10;13.15;;;;;;;20.83;39.85;94853.34;5062742;28;20678;-80
2023/03/24 09:35:31;;;;;;;24.20;11.98;;;;;;;20.83;39.81;94820.44;5058436;28;20697;-80
2023/03/24 09:37:57;;;;;;;19.45;11.63;;;;;;;20.73;37.63;94841.91;5063449;28;20203;-80
2023/03/24 09:40:26;;;;;;;27.70;12.15;;;;;;;20.68;38.03;94850.72;5063062;28;20182;-80
2023/03/24 09:43:18;;;;;;;20.70;11.38;;;;;;;20.78;39.04;94849.88;5063152;28;20175;-80
2023/03/24 09:45:50;;;;;;;29.80;13.20;;;;;;;20.86;40.19;94846.63;5035372;28;20765;-80
2023/03/24 09:48:40;;;;;;;20.50;11.50;;;;;;;20.96;39.39;94827.84;5069542;28;20178;-80
2023/03/24 09:51:14;;;;;;;19.65;10.98;;;;;;;20.94;36.79;94816.63;5059986;28;20678;-80
2023/03/24 09:53:43;;;;;;;20.27;10.75;;;;;;;21.07;37.16;94834.75;5065479;28;20170;-80
2023/03/24 09:56:21;;;;;;;15.70;9.70;;;;;;;20.83;37.33;94799.03;5068911;28;20177;-80
2023/03/24 09:59:03;;;;;;;17.65;10.18;;;;;;;20.56;37.38;94808.25;5066742;28;20621;-78
2023/03/24 10:01:28;;;;;;;16.95;10.40;;;;;;;20.31;41.75;94819.81;5065675;28;20174;-79
2023/03/24 10:03:58;;;;;;;14.77;9.43;;;;;;;19.84;40.00;94822.84;5063760;28;20615;-78
2023/03/24 10:06:40;;;;;;;20.00;10.98;;;;;;;19.12;43.12;94802.50;5064074;28;20722;-81
2023/03/24 10:09:29;;;;;;;22.30;11.48;;;;;;;19.28;40.62;94813.22;5059018;28;20175;-81
2023/03/24 10:12:27;;;;;;;20.88;9.85;;;;;;;19.33;41.32;94815.88;5053804;28;20156;-82
2023/03/24 10:15:19;;;;;;;31.58;10.65;;;;;;;19.38;40.66;94807.88;5062119;28;20172;-82
2023/03/24 10:18:09;;;;;;;14.82;8.98;;;;;;;19.39;41.94;94804.94;5061873;28;20155;-82
2023/03/24 10:20:55;;;;;;;10.82;7.80;;;;;;;19.16;40.76;94758.22;5062268;28;20175;-82
2023/03/24 10:23:35;;;;;;;15.55;7.25;;;;;;;19.34;40.20;94788.13;5058415;28;20651;-82
2023/03/24 10:26:03;;;;;;;14.43;8.55;;;;;;;19.40;40.89;94790.53;5051808;28;20286;-82
2023/03/24 10:28:38;;;;;;;17.38;8.10;;;;;;;19.37;39.75;94795.59;5062868;28;20688;-82
2023/03/24 10:31:10;;;;;;;13.32;8.80;;;;;;;19.29;39.43;94799.59;5061455;28;20186;-81
2023/03/24 10:33:42;;;;;;;14.32;8.43;;;;;;;19.12;40.01;94799.84;5061518;28;20167;-81
2023/03/24 10:36:20;;;;;;;14.07;8.57;;;;;;;18.93;39.70;94776.63;5072679;28;20171;-82
2023/03/24 10:38:46;;;;;;;18.85;8.48;;;;;;;18.78;39.38;94791.50;5073034;28;20245;-81
2023/03/24 10:41:23;;;;;;;13.63;8.13;;;;;;;18.76;40.70;94793.66;5070075;28;20252;-81
2023/03/24 10:43:51;;;;;;;20.80;8.52;;;;;;;18.64;41.50;94779.75;5061280;28;20252;-83
2023/03/24 10:46:23;;;;;;;10.95;7.57;;;;;;;18.55;43.76;94748.50;5063837;28;20217;-81
2023/03/24 10:49:10;;;;;;;12.05;7.55;;;;;;;18.87;44.54;94774.97;5061324;28;20195;-83
2023/03/24 10:51:35;;;;;;;16.98;6.68;;;;;;;18.98;44.03;94776.63;5053851;28;20183;-82
2023/03/24 10:54:24;;;;;;;8.85;6.00;;;;;;;19.00;39.42;94775.28;5061367;28;20229;-82
2023/03/24 10:56:59;;;;;;;12.02;5.78;;;;;;;19.06;40.96;94768.09;5059749;28;20232;-82
2023/03/24 10:59:30;;;;;;;11.98;6.00;;;;;;;18.93;39.86;94757.94;5072263;28;20228;-81
2023/03/24 11:02:19;;;;;;;9.90;5.88;;;;;;;18.90;40.30;94758.47;5072553;28;20233;-81
2023/03/24 11:04:57;;;;;;;13.13;5.82;;;;;;;19.01;38.29;94776.09;5072987;28;20208;-82
2023/03/24 11:07:29;;;;;;;25.38;7.78;;;;;;;18.87;39.23;94759.78;5072417;28;20674;-80
2023/03/24 11:10:04;;;;;;;11.20;5.75;;;;;;;18.85;41.02;94765.38;5070980;28;20614;-80
2023/03/24 11:12:32;;;;;;;9.10;4.82;;;;;;;18.66;36.79;94742.16;5063815;28;20173;-80
2023/03/24 11:15:14;;;;;;;6.47;4.68;;;;;;;18.76;40.36;94761.66;5057354;28;20258;-80
2023/03/24 11:17:41;;;;;;;10.63;4.35;;;;;;;18.66;37.74;94732.28;5048121;28;20175;-80
2023/03/24 11:20:17;;;;;;;8.43;4.13;;;;;;;18.90;39.66;94748.59;5055062;28;20674;-80
2023/03/24 11:22:54;;;;;;;10.32;3.35;;;;;;;18.95;39.65;94743.25;5058763;28;20175;-80
2023/03/24 11:25:25;;;;;;;6.38;3.22;;;;;;;18.93;36.06;94731.25;5049691;28;20175;-80
2023/03/24 11:27:52;;;;;;;5.43;3.83;;;;;;;19.12;36.36;94735.78;5049350;28;20199;-80
2023/03/24 11:30:18;;;;;;;7.55;4.00;;;;;;;19.12;37.24;94729.66;5049700;28;20183;-80
2023/03/24 11:32:46;;;;;;;5.88;3.83;;;;;;;19.26;39.22;94724.59;5049298;28;20216;-80
2023/03/24 11:35:16;;;;;;;6.72;3.47;;;;;;;19.38;38.06;94722.44;5050106;28;20207;-80
2023/03/24 11:37:44;;;;;;;5.55;2.83;;;;;;;19.42;35.53;94718.16;5050005;28;20194;-80
2023/03/24 11:40:25;;;;;;;7.78;3.33;;;;;;;19.42;34.98;94712.81;5050089;28;20191;-80